sensor_id;sensor_type;location;lat;lon;timestamp;P1;durP1;ratioP1;P2;durP2;ratioP2
37843;SDS011;63793;57.632;18.292;2023-04-12T00:01:02;15.50;;;13.75;;
37843;SDS011;63793;57.632;18.292;2023-04-12T00:03:29;17.30;;;15.57;;
37843;SDS011;63793;57.632;18.292;2023-04-12T00:05:59;16.92;;;14.90;;
37843;SDS011;63793;57.632;18.292;2023-04-12T00:08:28;18.48;;;14.38;;
37843;SDS011;63793;57.632;18.292;2023-04-12T00:10:58;16.77;;;13.57;;
37843;SDS011;63793;57.632;18.292;2023-04-12T00:13:26;18.13;;;16.30;;
37843;SDS011;63793;57.632;18.292;2023-04-12T00:15:53;23.85;;;17.85;;
37843;SDS011;63793;57.632;18.292;2023-04-12T00:18:21;16.70;;;15.00;;
37843;SDS011;63793;57.632;18.292;2023-04-12T00:20:51;18.02;;;14.20;;
37843;SDS011;63793;57.632;18.292;2023-04-12T00:23:18;19.02;;;16.08;;
37843;SDS011;63793;57.632;18.292;2023-04-12T00:25:46;18.42;;;16.45;;
37843;SDS011;63793;57.632;18.292;2023-04-12T00:28:13;18.95;;;16.95;;
37843;SDS011;63793;57.632;18.292;2023-04-12T00:30:42;17.85;;;15.98;;
37843;SDS011;63793;57.632;18.292;2023-04-12T00:33:09;17.38;;;15.15;;
37843;SDS011;63793;57.632;18.292;2023-04-12T00:35:36;18.63;;;16.50;;
37843;SDS011;63793;57.632;18.292;2023-04-12T00:38:02;19.73;;;17.45;;
37843;SDS011;63793;57.632;18.292;2023-04-12T00:40:31;17.02;;;15.18;;
37843;SDS011;63793;57.632;18.292;2023-04-12T00:42:59;16.85;;;13.75;;
37843;SDS011;63793;57.632;18.292;2023-04-12T00:45:26;18.00;;;16.17;;
37843;SDS011;63793;57.632;18.292;2023-04-12T00:47:53;18.23;;;16.20;;
37843;SDS011;63793;57.632;18.292;2023-04-12T00:50:21;22.08;;;15.10;;
37843;SDS011;63793;57.632;18.292;2023-04-12T00:52:49;18.27;;;16.38;;
37843;SDS011;63793;57.632;18.292;2023-04-12T00:55:17;17.67;;;13.38;;
37843;SDS011;63793;57.632;18.292;2023-04-12T00:57:44;16.85;;;15.05;;
37843;SDS011;63793;57.632;18.292;2023-04-12T01:00:12;16.90;;;15.05;;
37843;SDS011;63793;57.632;18.292;2023-04-12T01:02:42;20.25;;;15.88;;
37843;SDS011;63793;57.632;18.292;2023-04-12T01:05:17;20.90;;;16.60;;
37843;SDS011;63793;57.632;18.292;2023-04-12T01:11:12;18.48;;;14.65;;
37843;SDS011;63793;57.632;18.292;2023-04-12T01:14:10;17.88;;;15.82;;
37843;SDS011;63793;57.632;18.292;2023-04-12T01:16:41;16.95;;;14.95;;
37843;SDS011;63793;57.632;18.292;2023-04-12T01:27:52;20.42;;;16.80;;
37843;SDS011;63793;57.632;18.292;2023-04-12T01:30:22;16.58;;;14.48;;
37843;SDS011;63793;57.632;18.292;2023-04-12T01:32:53;18.17;;;15.38;;
37843;SDS011;63793;57.632;18.292;2023-04-12T01:35:23;16.73;;;15.02;;
37843;SDS011;63793;57.632;18.292;2023-04-12T01:37:56;18.60;;;15.70;;
37843;SDS011;63793;57.632;18.292;2023-04-12T01:40:24;17.17;;;15.27;;
37843;SDS011;63793;57.632;18.292;2023-04-12T01:43:03;20.05;;;15.35;;
37843;SDS011;63793;57.632;18.292;2023-04-12T01:45:30;17.48;;;14.13;;
37843;SDS011;63793;57.632;18.292;2023-04-12T01:47:58;20.48;;;15.23;;
37843;SDS011;63793;57.632;18.292;2023-04-12T01:50:40;16.42;;;14.68;;
37843;SDS011;63793;57.632;18.292;2023-04-12T01:53:32;21.75;;;16.10;;
37843;SDS011;63793;57.632;18.292;2023-04-12T01:56:14;17.50;;;15.10;;
37843;SDS011;63793;57.632;18.292;2023-04-12T01:58:43;18.80;;;15.32;;
37843;SDS011;63793;57.632;18.292;2023-04-12T02:01:13;18.38;;;16.23;;
37843;SDS011;63793;57.632;18.292;2023-04-12T02:03:41;18.15;;;15.35;;
37843;SDS011;63793;57.632;18.292;2023-04-12T02:06:09;18.33;;;15.60;;
37843;SDS011;63793;57.632;18.292;2023-04-12T02:08:37;19.13;;;17.17;;
37843;SDS011;63793;57.632;18.292;2023-04-12T02:11:10;20.92;;;15.77;;
37843;SDS011;63793;57.632;18.292;2023-04-12T02:13:37;19.48;;;16.73;;
37843;SDS011;63793;57.632;18.292;2023-04-12T02:16:04;16.85;;;14.25;;
37843;SDS011;63793;57.632;18.292;2023-04-12T02:18:33;16.52;;;14.15;;
37843;SDS011;63793;57.632;18.292;2023-04-12T02:21:04;20.20;;;15.50;;
37843;SDS011;63793;57.632;18.292;2023-04-12T02:23:32;17.75;;;14.75;;
37843;SDS011;63793;57.632;18.292;2023-04-12T02:25:59;20.33;;;14.20;;
37843;SDS011;63793;57.632;18.292;2023-04-12T02:28:27;17.20;;;15.32;;
37843;SDS011;63793;57.632;18.292;2023-04-12T02:30:54;17.63;;;14.48;;
37843;SDS011;63793;57.632;18.292;2023-04-12T02:33:21;20.65;;;14.98;;
37843;SDS011;63793;57.632;18.292;2023-04-12T02:35:53;21.88;;;16.27;;
37843;SDS011;63793;57.632;18.292;2023-04-12T02:38:21;19.83;;;15.35;;
37843;SDS011;63793;57.632;18.292;2023-04-12T02:40:49;19.58;;;16.60;;
37843;SDS011;63793;57.632;18.292;2023-04-12T02:43:17;18.52;;;14.57;;
37843;SDS011;63793;57.632;18.292;2023-04-12T02:45:48;19.08;;;15.55;;
37843;SDS011;63793;57.632;18.292;2023-04-12T02:48:15;17.60;;;15.63;;
37843;SDS011;63793;57.632;18.292;2023-04-12T02:50:43;17.83;;;14.00;;
37843;SDS011;63793;57.632;18.292;2023-04-12T02:53:16;21.13;;;15.40;;
37843;SDS011;63793;57.632;18.292;2023-04-12T02:55:47;18.70;;;15.68;;
37843;SDS011;63793;57.632;18.292;2023-04-12T02:58:20;17.33;;;14.85;;
37843;SDS011;63793;57.632;18.292;2023-04-12T03:00:49;17.77;;;15.10;;
37843;SDS011;63793;57.632;18.292;2023-04-12T03:03:22;20.73;;;16.92;;
37843;SDS011;63793;57.632;18.292;2023-04-12T03:05:53;21.05;;;16.42;;
37843;SDS011;63793;57.632;18.292;2023-04-12T03:08:20;18.15;;;14.98;;
37843;SDS011;63793;57.632;18.292;2023-04-12T03:10:51;19.63;;;15.20;;
37843;SDS011;63793;57.632;18.292;2023-04-12T03:13:18;19.65;;;15.23;;
37843;SDS011;63793;57.632;18.292;2023-04-12T03:15:48;19.70;;;15.77;;
37843;SDS011;63793;57.632;18.292;2023-04-12T03:18:21;22.05;;;16.27;;
37843;SDS011;63793;57.632;18.292;2023-04-12T03:20:50;20.02;;;14.55;;
37843;SDS011;63793;57.632;18.292;2023-04-12T03:23:18;19.67;;;15.80;;
37843;SDS011;63793;57.632;18.292;2023-04-12T03:25:52;17.98;;;14.82;;
37843;SDS011;63793;57.632;18.292;2023-04-12T03:28:32;17.20;;;14.52;;
37843;SDS011;63793;57.632;18.292;2023-04-12T03:31:01;23.67;;;16.90;;
37843;SDS011;63793;57.632;18.292;2023-04-12T03:33:43;20.52;;;16.85;;
37843;SDS011;63793;57.632;18.292;2023-04-12T03:36:18;22.02;;;15.63;;
37843;SDS011;63793;57.632;18.292;2023-04-12T03:38:52;23.75;;;16.95;;
37843;SDS011;63793;57.632;18.292;2023-04-12T03:41:22;20.55;;;16.63;;
37843;SDS011;63793;57.632;18.292;2023-04-12T03:43:49;20.75;;;16.92;;
37843;SDS011;63793;57.632;18.292;2023-04-12T03:46:17;20.15;;;17.77;;
37843;SDS011;63793;57.632;18.292;2023-04-12T03:48:51;22.25;;;17.48;;
37843;SDS011;63793;57.632;18.292;2023-04-12T03:51:20;23.73;;;17.92;;
37843;SDS011;63793;57.632;18.292;2023-04-12T03:53:47;21.83;;;17.75;;
37843;SDS011;63793;57.632;18.292;2023-04-12T03:56:14;24.25;;;18.50;;
37843;SDS011;63793;57.632;18.292;2023-04-12T03:58:45;20.48;;;16.67;;
37843;SDS011;63793;57.632;18.292;2023-04-12T04:01:14;21.92;;;17.27;;
37843;SDS011;63793;57.632;18.292;2023-04-12T04:03:43;29.65;;;17.30;;
37843;SDS011;63793;57.632;18.292;2023-04-12T04:06:18;18.40;;;16.10;;
37843;SDS011;63793;57.632;18.292;2023-04-12T04:08:46;22.25;;;18.13;;
37843;SDS011;63793;57.632;18.292;2023-04-12T04:11:13;21.40;;;16.15;;
37843;SDS011;63793;57.632;18.292;2023-04-12T04:16:17;19.23;;;15.30;;
37843;SDS011;63793;57.632;18.292;2023-04-12T04:18:44;22.90;;;16.58;;
37843;SDS011;63793;57.632;18.292;2023-04-12T04:21:13;22.80;;;16.77;;
37843;SDS011;63793;57.632;18.292;2023-04-12T04:23:40;22.80;;;16.17;;
37843;SDS011;63793;57.632;18.292;2023-04-12T04:26:10;20.60;;;18.40;;
37843;SDS011;63793;57.632;18.292;2023-04-12T04:28:45;22.13;;;17.33;;
37843;SDS011;63793;57.632;18.292;2023-04-12T04:31:16;25.88;;;17.55;;
37843;SDS011;63793;57.632;18.292;2023-04-12T04:33:47;23.00;;;17.23;;
37843;SDS011;63793;57.632;18.292;2023-04-12T04:36:15;22.67;;;17.70;;
37843;SDS011;63793;57.632;18.292;2023-04-12T04:38:47;21.52;;;17.50;;
37843;SDS011;63793;57.632;18.292;2023-04-12T04:41:25;23.23;;;16.25;;
37843;SDS011;63793;57.632;18.292;2023-04-12T04:43:56;19.50;;;17.35;;
37843;SDS011;63793;57.632;18.292;2023-04-12T04:48:55;24.73;;;16.73;;
37843;SDS011;63793;57.632;18.292;2023-04-12T04:51:24;23.77;;;18.95;;
37843;SDS011;63793;57.632;18.292;2023-04-12T04:53:53;22.88;;;18.85;;
37843;SDS011;63793;57.632;18.292;2023-04-12T04:56:20;24.70;;;17.88;;
37843;SDS011;63793;57.632;18.292;2023-04-12T04:58:51;23.20;;;18.95;;
37843;SDS011;63793;57.632;18.292;2023-04-12T05:01:23;23.73;;;18.27;;
37843;SDS011;63793;57.632;18.292;2023-04-12T05:03:57;24.35;;;19.13;;
37843;SDS011;63793;57.632;18.292;2023-04-12T05:06:25;24.85;;;19.95;;
37843;SDS011;63793;57.632;18.292;2023-04-12T05:08:54;23.08;;;18.95;;
37843;SDS011;63793;57.632;18.292;2023-04-12T05:11:22;26.33;;;22.02;;
37843;SDS011;63793;57.632;18.292;2023-04-12T05:13:49;25.83;;;20.20;;
37843;SDS011;63793;57.632;18.292;2023-04-12T05:16:16;29.25;;;21.92;;
37843;SDS011;63793;57.632;18.292;2023-04-12T05:18:43;22.60;;;18.35;;
37843;SDS011;63793;57.632;18.292;2023-04-12T05:21:10;24.45;;;19.85;;
37843;SDS011;63793;57.632;18.292;2023-04-12T05:23:41;25.17;;;19.25;;
37843;SDS011;63793;57.632;18.292;2023-04-12T05:26:11;25.27;;;19.25;;
37843;SDS011;63793;57.632;18.292;2023-04-12T05:28:40;25.33;;;19.10;;
37843;SDS011;63793;57.632;18.292;2023-04-12T05:31:09;26.83;;;21.17;;
37843;SDS011;63793;57.632;18.292;2023-04-12T05:33:37;28.50;;;20.45;;
37843;SDS011;63793;57.632;18.292;2023-04-12T05:36:04;26.73;;;21.88;;
37843;SDS011;63793;57.632;18.292;2023-04-12T05:38:32;26.70;;;22.13;;
37843;SDS011;63793;57.632;18.292;2023-04-12T05:41:03;24.27;;;20.33;;
37843;SDS011;63793;57.632;18.292;2023-04-12T05:43:32;26.92;;;20.88;;
37843;SDS011;63793;57.632;18.292;2023-04-12T05:45:59;28.40;;;22.02;;
37843;SDS011;63793;57.632;18.292;2023-04-12T05:48:26;25.63;;;21.38;;
37843;SDS011;63793;57.632;18.292;2023-04-12T05:50:55;25.90;;;19.77;;
37843;SDS011;63793;57.632;18.292;2023-04-12T05:53:22;26.70;;;20.58;;
37843;SDS011;63793;57.632;18.292;2023-04-12T05:55:49;26.63;;;20.40;;
37843;SDS011;63793;57.632;18.292;2023-04-12T05:58:17;25.20;;;19.70;;
37843;SDS011;63793;57.632;18.292;2023-04-12T06:00:46;25.13;;;20.23;;
37843;SDS011;63793;57.632;18.292;2023-04-12T06:03:14;26.95;;;20.80;;
37843;SDS011;63793;57.632;18.292;2023-04-12T06:05:43;26.60;;;21.58;;
37843;SDS011;63793;57.632;18.292;2023-04-12T06:08:10;24.70;;;20.67;;
37843;SDS011;63793;57.632;18.292;2023-04-12T06:10:40;25.98;;;20.05;;
37843;SDS011;63793;57.632;18.292;2023-04-12T06:13:07;25.83;;;21.52;;
37843;SDS011;63793;57.632;18.292;2023-04-12T06:15:38;26.40;;;20.75;;
37843;SDS011;63793;57.632;18.292;2023-04-12T06:18:05;27.27;;;21.15;;
37843;SDS011;63793;57.632;18.292;2023-04-12T06:20:33;27.17;;;19.85;;
37843;SDS011;63793;57.632;18.292;2023-04-12T06:23:00;25.45;;;19.17;;
37843;SDS011;63793;57.632;18.292;2023-04-12T06:25:27;23.48;;;18.73;;
37843;SDS011;63793;57.632;18.292;2023-04-12T06:27:56;26.52;;;20.73;;
37843;SDS011;63793;57.632;18.292;2023-04-12T06:30:24;25.83;;;20.55;;
37843;SDS011;63793;57.632;18.292;2023-04-12T06:32:52;26.98;;;20.45;;
37843;SDS011;63793;57.632;18.292;2023-04-12T06:35:20;22.23;;;19.85;;
37843;SDS011;63793;57.632;18.292;2023-04-12T06:37:48;21.58;;;17.75;;
37843;SDS011;63793;57.632;18.292;2023-04-12T06:40:15;23.02;;;20.08;;
37843;SDS011;63793;57.632;18.292;2023-04-12T06:42:42;21.27;;;18.98;;
37843;SDS011;63793;57.632;18.292;2023-04-12T06:45:08;22.38;;;19.38;;
37843;SDS011;63793;57.632;18.292;2023-04-12T06:47:36;25.13;;;17.55;;
37843;SDS011;63793;57.632;18.292;2023-04-12T06:50:03;23.00;;;17.65;;
37843;SDS011;63793;57.632;18.292;2023-04-12T06:52:32;23.35;;;19.55;;
37843;SDS011;63793;57.632;18.292;2023-04-12T06:54:59;26.98;;;18.88;;
37843;SDS011;63793;57.632;18.292;2023-04-12T06:57:25;19.92;;;16.63;;
37843;SDS011;63793;57.632;18.292;2023-04-12T06:59:52;19.05;;;15.82;;
37843;SDS011;63793;57.632;18.292;2023-04-12T07:02:19;20.45;;;17.23;;
37843;SDS011;63793;57.632;18.292;2023-04-12T07:04:46;23.33;;;18.33;;
37843;SDS011;63793;57.632;18.292;2023-04-12T07:07:18;20.95;;;17.40;;
37843;SDS011;63793;57.632;18.292;2023-04-12T07:09:46;17.55;;;15.70;;
37843;SDS011;63793;57.632;18.292;2023-04-12T07:12:13;23.63;;;16.85;;
37843;SDS011;63793;57.632;18.292;2023-04-12T07:14:40;21.65;;;15.20;;
37843;SDS011;63793;57.632;18.292;2023-04-12T07:17:09;15.93;;;14.32;;
37843;SDS011;63793;57.632;18.292;2023-04-12T07:19:36;21.25;;;15.15;;
37843;SDS011;63793;57.632;18.292;2023-04-12T07:22:04;20.35;;;16.40;;
37843;SDS011;63793;57.632;18.292;2023-04-12T07:24:31;17.60;;;14.10;;
37843;SDS011;63793;57.632;18.292;2023-04-12T07:26:58;15.88;;;13.15;;
37843;SDS011;63793;57.632;18.292;2023-04-12T07:29:25;20.33;;;15.70;;
37843;SDS011;63793;57.632;18.292;2023-04-12T07:31:52;16.80;;;13.07;;
37843;SDS011;63793;57.632;18.292;2023-04-12T07:34:18;15.98;;;12.35;;
37843;SDS011;63793;57.632;18.292;2023-04-12T07:36:46;18.23;;;16.10;;
37843;SDS011;63793;57.632;18.292;2023-04-12T07:39:13;19.23;;;14.13;;
37843;SDS011;63793;57.632;18.292;2023-04-12T07:41:41;23.52;;;16.42;;
37843;SDS011;63793;57.632;18.292;2023-04-12T07:44:11;21.50;;;15.43;;
37843;SDS011;63793;57.632;18.292;2023-04-12T07:46:38;33.90;;;17.88;;
37843;SDS011;63793;57.632;18.292;2023-04-12T07:49:07;26.10;;;17.80;;
37843;SDS011;63793;57.632;18.292;2023-04-12T07:51:35;18.40;;;15.70;;
37843;SDS011;63793;57.632;18.292;2023-04-12T07:54:03;26.70;;;16.70;;
37843;SDS011;63793;57.632;18.292;2023-04-12T07:56:33;24.92;;;15.05;;
37843;SDS011;63793;57.632;18.292;2023-04-12T07:59:00;35.95;;;17.33;;
37843;SDS011;63793;57.632;18.292;2023-04-12T08:01:27;45.60;;;16.52;;
37843;SDS011;63793;57.632;18.292;2023-04-12T08:03:54;28.73;;;15.80;;
37843;SDS011;63793;57.632;18.292;2023-04-12T08:06:21;41.38;;;18.83;;
37843;SDS011;63793;57.632;18.292;2023-04-12T08:08:48;22.25;;;15.93;;
37843;SDS011;63793;57.632;18.292;2023-04-12T08:11:15;24.60;;;15.85;;
37843;SDS011;63793;57.632;18.292;2023-04-12T08:13:42;21.13;;;12.32;;
37843;SDS011;63793;57.632;18.292;2023-04-12T08:16:08;25.27;;;16.17;;
37843;SDS011;63793;57.632;18.292;2023-04-12T08:18:35;27.65;;;15.30;;
37843;SDS011;63793;57.632;18.292;2023-04-12T08:21:02;40.72;;;16.13;;
37843;SDS011;63793;57.632;18.292;2023-04-12T08:23:29;24.58;;;14.27;;
37843;SDS011;63793;57.632;18.292;2023-04-12T08:25:56;29.45;;;15.70;;
37843;SDS011;63793;57.632;18.292;2023-04-12T08:28:29;17.48;;;12.88;;
37843;SDS011;63793;57.632;18.292;2023-04-12T08:30:56;20.00;;;14.23;;
37843;SDS011;63793;57.632;18.292;2023-04-12T08:33:24;21.65;;;13.73;;
37843;SDS011;63793;57.632;18.292;2023-04-12T08:35:51;15.93;;;14.20;;
37843;SDS011;63793;57.632;18.292;2023-04-12T08:38:18;19.67;;;13.77;;
37843;SDS011;63793;57.632;18.292;2023-04-12T08:40:56;17.75;;;13.18;;
37843;SDS011;63793;57.632;18.292;2023-04-12T08:43:24;14.50;;;12.50;;
37843;SDS011;63793;57.632;18.292;2023-04-12T08:45:54;14.57;;;12.45;;
37843;SDS011;63793;57.632;18.292;2023-04-12T08:48:23;15.68;;;13.43;;
37843;SDS011;63793;57.632;18.292;2023-04-12T08:50:51;16.98;;;13.13;;
37843;SDS011;63793;57.632;18.292;2023-04-12T08:53:20;15.35;;;12.95;;
37843;SDS011;63793;57.632;18.292;2023-04-12T08:55:46;15.30;;;13.68;;
37843;SDS011;63793;57.632;18.292;2023-04-12T08:58:14;15.52;;;13.52;;
37843;SDS011;63793;57.632;18.292;2023-04-12T09:00:41;15.35;;;13.75;;
37843;SDS011;63793;57.632;18.292;2023-04-12T09:03:09;20.15;;;14.15;;
37843;SDS011;63793;57.632;18.292;2023-04-12T09:05:37;14.90;;;13.38;;
37843;SDS011;63793;57.632;18.292;2023-04-12T09:08:04;19.25;;;10.55;;
37843;SDS011;63793;57.632;18.292;2023-04-12T09:10:37;10.02;;;8.00;;
37843;SDS011;63793;57.632;18.292;2023-04-12T09:13:05;9.65;;;8.55;;
37843;SDS011;63793;57.632;18.292;2023-04-12T09:15:32;20.05;;;9.93;;
37843;SDS011;63793;57.632;18.292;2023-04-12T09:18:09;14.40;;;12.00;;
37843;SDS011;63793;57.632;18.292;2023-04-12T09:20:37;15.68;;;11.45;;
37843;SDS011;63793;57.632;18.292;2023-04-12T09:23:17;22.30;;;10.73;;
37843;SDS011;63793;57.632;18.292;2023-04-12T09:25:47;20.55;;;10.75;;
37843;SDS011;63793;57.632;18.292;2023-04-12T09:28:26;22.15;;;10.98;;
37843;SDS011;63793;57.632;18.292;2023-04-12T09:30:55;18.45;;;10.93;;
37843;SDS011;63793;57.632;18.292;2023-04-12T09:33:34;18.13;;;11.93;;
37843;SDS011;63793;57.632;18.292;2023-04-12T09:36:03;22.08;;;12.35;;
37843;SDS011;63793;57.632;18.292;2023-04-12T09:38:31;15.35;;;10.05;;
37843;SDS011;63793;57.632;18.292;2023-04-12T09:41:17;26.05;;;11.43;;
37843;SDS011;63793;57.632;18.292;2023-04-12T09:43:51;15.77;;;7.15;;
37843;SDS011;63793;57.632;18.292;2023-04-12T09:46:18;15.38;;;7.35;;
37843;SDS011;63793;57.632;18.292;2023-04-12T09:48:52;16.80;;;8.98;;
37843;SDS011;63793;57.632;18.292;2023-04-12T09:51:26;14.80;;;8.98;;
37843;SDS011;63793;57.632;18.292;2023-04-12T09:54:02;12.80;;;8.57;;
37843;SDS011;63793;57.632;18.292;2023-04-12T09:56:32;9.68;;;8.55;;
37843;SDS011;63793;57.632;18.292;2023-04-12T09:59:02;12.52;;;6.85;;
37843;SDS011;63793;57.632;18.292;2023-04-12T10:01:34;10.38;;;8.27;;
37843;SDS011;63793;57.632;18.292;2023-04-12T10:04:05;10.45;;;7.95;;
37843;SDS011;63793;57.632;18.292;2023-04-12T10:06:34;16.98;;;9.57;;
37843;SDS011;63793;57.632;18.292;2023-04-12T10:09:06;11.85;;;7.45;;
37843;SDS011;63793;57.632;18.292;2023-04-12T10:11:34;11.10;;;8.13;;
37843;SDS011;63793;57.632;18.292;2023-04-12T10:14:02;11.95;;;8.10;;
37843;SDS011;63793;57.632;18.292;2023-04-12T10:16:32;14.02;;;8.32;;
37843;SDS011;63793;57.632;18.292;2023-04-12T10:19:03;11.02;;;7.35;;
37843;SDS011;63793;57.632;18.292;2023-04-12T10:21:30;14.13;;;8.95;;
37843;SDS011;63793;57.632;18.292;2023-04-12T10:23:57;10.73;;;7.90;;
37843;SDS011;63793;57.632;18.292;2023-04-12T10:26:25;12.52;;;9.27;;
37843;SDS011;63793;57.632;18.292;2023-04-12T10:31:53;10.25;;;6.63;;
37843;SDS011;63793;57.632;18.292;2023-04-12T10:34:28;13.75;;;9.25;;
37843;SDS011;63793;57.632;18.292;2023-04-12T10:36:56;14.82;;;8.48;;
37843;SDS011;63793;57.632;18.292;2023-04-12T10:39:41;13.87;;;11.53;;
37843;SDS011;63793;57.632;18.292;2023-04-12T10:44:53;12.27;;;10.63;;
37843;SDS011;63793;57.632;18.292;2023-04-12T10:55:38;13.65;;;9.00;;
37843;SDS011;63793;57.632;18.292;2023-04-12T10:58:05;14.30;;;9.68;;
37843;SDS011;63793;57.632;18.292;2023-04-12T11:03:21;18.70;;;10.93;;
37843;SDS011;63793;57.632;18.292;2023-04-12T11:05:58;17.65;;;10.93;;
37843;SDS011;63793;57.632;18.292;2023-04-12T11:09:03;14.00;;;9.43;;
37843;SDS011;63793;57.632;18.292;2023-04-12T11:11:33;17.08;;;9.40;;
37843;SDS011;63793;57.632;18.292;2023-04-12T11:14:00;14.90;;;11.10;;
37843;SDS011;63793;57.632;18.292;2023-04-12T11:16:27;14.00;;;11.10;;
37843;SDS011;63793;57.632;18.292;2023-04-12T11:18:54;12.10;;;9.63;;
37843;SDS011;63793;57.632;18.292;2023-04-12T11:21:22;11.75;;;9.52;;
37843;SDS011;63793;57.632;18.292;2023-04-12T11:23:50;9.63;;;8.68;;
37843;SDS011;63793;57.632;18.292;2023-04-12T11:26:19;14.30;;;8.18;;
37843;SDS011;63793;57.632;18.292;2023-04-12T11:28:47;15.70;;;8.65;;
37843;SDS011;63793;57.632;18.292;2023-04-12T11:31:18;17.17;;;9.43;;
37843;SDS011;63793;57.632;18.292;2023-04-12T11:33:46;13.93;;;9.35;;
37843;SDS011;63793;57.632;18.292;2023-04-12T11:36:13;19.98;;;10.50;;
37843;SDS011;63793;57.632;18.292;2023-04-12T11:38:41;25.70;;;9.13;;
37843;SDS011;63793;57.632;18.292;2023-04-12T11:41:13;13.85;;;8.95;;
37843;SDS011;63793;57.632;18.292;2023-04-12T11:43:40;15.48;;;10.68;;
37843;SDS011;63793;57.632;18.292;2023-04-12T11:46:07;14.98;;;10.98;;
37843;SDS011;63793;57.632;18.292;2023-04-12T11:48:34;12.80;;;9.95;;
37843;SDS011;63793;57.632;18.292;2023-04-12T11:54:01;10.82;;;9.70;;
37843;SDS011;63793;57.632;18.292;2023-04-12T11:56:29;9.73;;;8.40;;
37843;SDS011;63793;57.632;18.292;2023-04-12T11:58:57;11.95;;;9.52;;
37843;SDS011;63793;57.632;18.292;2023-04-12T12:01:24;11.25;;;8.48;;
37843;SDS011;63793;57.632;18.292;2023-04-12T12:03:53;17.35;;;8.23;;
37843;SDS011;63793;57.632;18.292;2023-04-12T12:06:21;12.18;;;8.65;;
37843;SDS011;63793;57.632;18.292;2023-04-12T12:08:50;14.43;;;10.50;;
37843;SDS011;63793;57.632;18.292;2023-04-12T12:11:21;11.88;;;10.05;;
37843;SDS011;63793;57.632;18.292;2023-04-12T12:13:49;16.73;;;10.90;;
37843;SDS011;63793;57.632;18.292;2023-04-12T12:16:22;12.98;;;9.75;;
37843;SDS011;63793;57.632;18.292;2023-04-12T12:18:54;21.08;;;10.73;;
37843;SDS011;63793;57.632;18.292;2023-04-12T12:21:22;10.52;;;9.38;;
37843;SDS011;63793;57.632;18.292;2023-04-12T12:23:49;11.95;;;9.02;;
37843;SDS011;63793;57.632;18.292;2023-04-12T12:26:22;9.93;;;8.88;;
37843;SDS011;63793;57.632;18.292;2023-04-12T12:28:51;9.48;;;7.55;;
37843;SDS011;63793;57.632;18.292;2023-04-12T12:31:20;10.18;;;8.57;;
37843;SDS011;63793;57.632;18.292;2023-04-12T12:33:52;9.90;;;7.93;;
37843;SDS011;63793;57.632;18.292;2023-04-12T12:36:28;9.50;;;8.15;;
37843;SDS011;63793;57.632;18.292;2023-04-12T12:39:05;14.40;;;8.85;;
37843;SDS011;63793;57.632;18.292;2023-04-12T12:41:37;12.27;;;8.90;;
37843;SDS011;63793;57.632;18.292;2023-04-12T12:44:04;9.25;;;8.27;;
37843;SDS011;63793;57.632;18.292;2023-04-12T12:46:33;11.15;;;9.05;;
37843;SDS011;63793;57.632;18.292;2023-04-12T12:49:03;10.48;;;9.07;;
37843;SDS011;63793;57.632;18.292;2023-04-12T12:51:30;16.23;;;9.07;;
37843;SDS011;63793;57.632;18.292;2023-04-12T12:53:57;11.15;;;9.63;;
37843;SDS011;63793;57.632;18.292;2023-04-12T12:56:24;10.75;;;9.32;;
37843;SDS011;63793;57.632;18.292;2023-04-12T12:58:51;11.30;;;9.30;;
37843;SDS011;63793;57.632;18.292;2023-04-12T13:01:18;10.65;;;8.25;;
37843;SDS011;63793;57.632;18.292;2023-04-12T13:03:45;12.07;;;10.82;;
37843;SDS011;63793;57.632;18.292;2023-04-12T13:06:12;12.48;;;9.98;;
37843;SDS011;63793;57.632;18.292;2023-04-12T13:08:38;10.93;;;9.77;;
37843;SDS011;63793;57.632;18.292;2023-04-12T13:11:05;15.65;;;9.85;;
37843;SDS011;63793;57.632;18.292;2023-04-12T13:13:32;11.75;;;10.20;;
37843;SDS011;63793;57.632;18.292;2023-04-12T13:15:59;9.45;;;8.50;;
37843;SDS011;63793;57.632;18.292;2023-04-12T13:18:26;15.93;;;10.82;;
37843;SDS011;63793;57.632;18.292;2023-04-12T13:20:53;11.05;;;9.55;;
37843;SDS011;63793;57.632;18.292;2023-04-12T13:23:20;12.10;;;9.75;;
37843;SDS011;63793;57.632;18.292;2023-04-12T13:25:46;11.40;;;10.23;;
37843;SDS011;63793;57.632;18.292;2023-04-12T13:28:13;12.25;;;10.00;;
37843;SDS011;63793;57.632;18.292;2023-04-12T13:30:42;11.30;;;10.05;;
37843;SDS011;63793;57.632;18.292;2023-04-12T13:33:09;10.13;;;9.13;;
37843;SDS011;63793;57.632;18.292;2023-04-12T13:35:40;13.80;;;10.55;;
37843;SDS011;63793;57.632;18.292;2023-04-12T13:38:06;11.45;;;10.27;;
37843;SDS011;63793;57.632;18.292;2023-04-12T13:40:34;12.82;;;9.55;;
37843;SDS011;63793;57.632;18.292;2023-04-12T13:43:00;12.57;;;9.68;;
37843;SDS011;63793;57.632;18.292;2023-04-12T13:45:27;13.95;;;10.27;;
37843;SDS011;63793;57.632;18.292;2023-04-12T13:47:57;13.85;;;9.60;;
37843;SDS011;63793;57.632;18.292;2023-04-12T13:50:24;14.82;;;9.75;;
37843;SDS011;63793;57.632;18.292;2023-04-12T13:52:51;13.52;;;9.98;;
37843;SDS011;63793;57.632;18.292;2023-04-12T13:55:18;9.75;;;8.60;;
37843;SDS011;63793;57.632;18.292;2023-04-12T13:57:45;10.77;;;7.57;;
37843;SDS011;63793;57.632;18.292;2023-04-12T14:00:11;18.33;;;9.38;;
37843;SDS011;63793;57.632;18.292;2023-04-12T14:02:39;11.23;;;9.88;;
37843;SDS011;63793;57.632;18.292;2023-04-12T14:05:06;14.13;;;8.77;;
37843;SDS011;63793;57.632;18.292;2023-04-12T14:07:33;9.15;;;7.57;;
37843;SDS011;63793;57.632;18.292;2023-04-12T14:10:00;13.38;;;8.82;;
37843;SDS011;63793;57.632;18.292;2023-04-12T14:12:28;9.80;;;8.73;;
37843;SDS011;63793;57.632;18.292;2023-04-12T14:14:56;12.90;;;8.60;;
37843;SDS011;63793;57.632;18.292;2023-04-12T14:17:22;11.75;;;9.18;;
37843;SDS011;63793;57.632;18.292;2023-04-12T14:19:49;10.25;;;9.25;;
37843;SDS011;63793;57.632;18.292;2023-04-12T14:22:16;12.38;;;8.57;;
37843;SDS011;63793;57.632;18.292;2023-04-12T14:24:43;10.38;;;8.52;;
37843;SDS011;63793;57.632;18.292;2023-04-12T14:27:10;11.88;;;7.32;;
37843;SDS011;63793;57.632;18.292;2023-04-12T14:29:37;9.98;;;7.90;;
37843;SDS011;63793;57.632;18.292;2023-04-12T14:32:05;11.65;;;9.23;;
37843;SDS011;63793;57.632;18.292;2023-04-12T14:34:31;8.75;;;7.88;;
37843;SDS011;63793;57.632;18.292;2023-04-12T14:36:59;15.60;;;8.77;;
37843;SDS011;63793;57.632;18.292;2023-04-12T14:39:26;12.52;;;8.10;;
37843;SDS011;63793;57.632;18.292;2023-04-12T14:41:53;8.93;;;8.05;;
37843;SDS011;63793;57.632;18.292;2023-04-12T14:44:20;12.63;;;8.68;;
37843;SDS011;63793;57.632;18.292;2023-04-12T14:46:50;11.30;;;7.85;;
37843;SDS011;63793;57.632;18.292;2023-04-12T14:49:17;9.48;;;7.45;;
37843;SDS011;63793;57.632;18.292;2023-04-12T14:51:44;10.05;;;8.05;;
37843;SDS011;63793;57.632;18.292;2023-04-12T14:54:11;8.25;;;7.55;;
37843;SDS011;63793;57.632;18.292;2023-04-12T14:56:38;11.80;;;8.15;;
37843;SDS011;63793;57.632;18.292;2023-04-12T14:59:16;10.48;;;7.80;;
37843;SDS011;63793;57.632;18.292;2023-04-12T15:01:43;9.32;;;8.07;;